sensor_id;sensor_type;location;lat;lon;timestamp;P1;durP1;ratioP1;P2;durP2;ratioP2
16135;SDS011;8173;48.354;9.248;2022-12-20T00:00:47;0.90;;;0.90;;
16135;SDS011;8173;48.354;9.248;2022-12-20T00:03:14;1.00;;;1.00;;
16135;SDS011;8173;48.354;9.248;2022-12-20T00:05:41;1.00;;;1.00;;
16135;SDS011;8173;48.354;9.248;2022-12-20T00:08:08;7.80;;;7.32;;
16135;SDS011;8173;48.354;9.248;2022-12-20T00:10:38;1.00;;;1.00;;
16135;SDS011;8173;48.354;9.248;2022-12-20T00:13:05;1.00;;;1.00;;
16135;SDS011;8173;48.354;9.248;2022-12-20T00:15:33;1.00;;;1.00;;
16135;SDS011;8173;48.354;9.248;2022-12-20T00:17:59;1.00;;;1.00;;
16135;SDS011;8173;48.354;9.248;2022-12-20T00:20:28;1.10;;;1.10;;
16135;SDS011;8173;48.354;9.248;2022-12-20T00:22:55;1.00;;;1.00;;
16135;SDS011;8173;48.354;9.248;2022-12-20T00:25:22;1.10;;;1.10;;
16135;SDS011;8173;48.354;9.248;2022-12-20T00:27:50;1.20;;;1.20;;
16135;SDS011;8173;48.354;9.248;2022-12-20T00:30:17;1.00;;;1.00;;
16135;SDS011;8173;48.354;9.248;2022-12-20T00:32:44;1.10;;;1.10;;
16135;SDS011;8173;48.354;9.248;2022-12-20T00:35:11;1.10;;;1.10;;
16135;SDS011;8173;48.354;9.248;2022-12-20T00:37:38;1.13;;;1.13;;
16135;SDS011;8173;48.354;9.248;2022-12-20T00:40:05;1.00;;;1.00;;
16135;SDS011;8173;48.354;9.248;2022-12-20T00:42:33;1.00;;;1.00;;
16135;SDS011;8173;48.354;9.248;2022-12-20T00:45:01;1.00;;;1.00;;
16135;SDS011;8173;48.354;9.248;2022-12-20T00:47:28;1.00;;;1.00;;
16135;SDS011;8173;48.354;9.248;2022-12-20T00:49:55;1.83;;;1.73;;
16135;SDS011;8173;48.354;9.248;2022-12-20T00:52:21;1.15;;;1.15;;
16135;SDS011;8173;48.354;9.248;2022-12-20T00:54:48;1.20;;;1.20;;
16135;SDS011;8173;48.354;9.248;2022-12-20T00:57:15;1.20;;;1.20;;
16135;SDS011;8173;48.354;9.248;2022-12-20T00:59:41;1.60;;;1.50;;
16135;SDS011;8173;48.354;9.248;2022-12-20T01:02:09;1.10;;;1.10;;
16135;SDS011;8173;48.354;9.248;2022-12-20T01:04:36;0.90;;;0.90;;
16135;SDS011;8173;48.354;9.248;2022-12-20T01:07:03;1.10;;;1.10;;
16135;SDS011;8173;48.354;9.248;2022-12-20T01:09:30;1.00;;;1.00;;
16135;SDS011;8173;48.354;9.248;2022-12-20T01:11:57;0.93;;;0.93;;
16135;SDS011;8173;48.354;9.248;2022-12-20T01:14:23;1.40;;;1.30;;
16135;SDS011;8173;48.354;9.248;2022-12-20T01:16:50;1.10;;;1.10;;
16135;SDS011;8173;48.354;9.248;2022-12-20T01:19:18;1.10;;;1.10;;
16135;SDS011;8173;48.354;9.248;2022-12-20T01:21:45;1.20;;;1.20;;
16135;SDS011;8173;48.354;9.248;2022-12-20T01:24:13;1.10;;;1.10;;
16135;SDS011;8173;48.354;9.248;2022-12-20T01:26:41;1.08;;;1.08;;
16135;SDS011;8173;48.354;9.248;2022-12-20T01:29:08;1.40;;;1.30;;
16135;SDS011;8173;48.354;9.248;2022-12-20T01:31:34;1.40;;;1.30;;
16135;SDS011;8173;48.354;9.248;2022-12-20T01:34:01;1.00;;;1.00;;
16135;SDS011;8173;48.354;9.248;2022-12-20T01:36:30;1.48;;;1.38;;
16135;SDS011;8173;48.354;9.248;2022-12-20T01:38:59;1.10;;;1.10;;
16135;SDS011;8173;48.354;9.248;2022-12-20T01:41:27;1.00;;;1.00;;
16135;SDS011;8173;48.354;9.248;2022-12-20T01:43:56;1.00;;;1.00;;
16135;SDS011;8173;48.354;9.248;2022-12-20T01:46:25;1.00;;;1.00;;
16135;SDS011;8173;48.354;9.248;2022-12-20T01:48:53;1.40;;;1.30;;
16135;SDS011;8173;48.354;9.248;2022-12-20T01:51:22;1.10;;;1.10;;
16135;SDS011;8173;48.354;9.248;2022-12-20T01:53:52;1.10;;;1.10;;
16135;SDS011;8173;48.354;9.248;2022-12-20T01:56:22;1.60;;;1.50;;
16135;SDS011;8173;48.354;9.248;2022-12-20T01:58:49;9.77;;;3.25;;
16135;SDS011;8173;48.354;9.248;2022-12-20T02:01:18;1.50;;;1.40;;
16135;SDS011;8173;48.354;9.248;2022-12-20T02:03:46;1.10;;;1.10;;
16135;SDS011;8173;48.354;9.248;2022-12-20T02:06:15;1.10;;;1.10;;
16135;SDS011;8173;48.354;9.248;2022-12-20T02:08:43;1.10;;;1.10;;
16135;SDS011;8173;48.354;9.248;2022-12-20T02:11:16;1.63;;;1.52;;
16135;SDS011;8173;48.354;9.248;2022-12-20T02:14:08;1.10;;;1.10;;
16135;SDS011;8173;48.354;9.248;2022-12-20T02:16:40;1.20;;;1.20;;
16135;SDS011;8173;48.354;9.248;2022-12-20T02:19:18;1.13;;;1.13;;
16135;SDS011;8173;48.354;9.248;2022-12-20T02:21:55;1.00;;;1.00;;
16135;SDS011;8173;48.354;9.248;2022-12-20T02:24:47;1.10;;;1.10;;
16135;SDS011;8173;48.354;9.248;2022-12-20T02:27:32;1.20;;;1.20;;
16135;SDS011;8173;48.354;9.248;2022-12-20T02:30:11;1.08;;;1.08;;
16135;SDS011;8173;48.354;9.248;2022-12-20T02:32:42;1.10;;;1.10;;
16135;SDS011;8173;48.354;9.248;2022-12-20T02:35:16;1.00;;;1.00;;
16135;SDS011;8173;48.354;9.248;2022-12-20T02:37:47;1.10;;;1.10;;
16135;SDS011;8173;48.354;9.248;2022-12-20T02:40:16;1.20;;;1.20;;
16135;SDS011;8173;48.354;9.248;2022-12-20T02:42:46;1.30;;;1.25;;
16135;SDS011;8173;48.354;9.248;2022-12-20T02:45:18;3.28;;;2.97;;
16135;SDS011;8173;48.354;9.248;2022-12-20T02:47:47;10.48;;;3.53;;
16135;SDS011;8173;48.354;9.248;2022-12-20T02:50:19;11.63;;;3.63;;
16135;SDS011;8173;48.354;9.248;2022-12-20T02:52:48;1.50;;;1.40;;
16135;SDS011;8173;48.354;9.248;2022-12-20T02:55:16;1.25;;;1.17;;
16135;SDS011;8173;48.354;9.248;2022-12-20T02:57:47;5.88;;;1.85;;
16135;SDS011;8173;48.354;9.248;2022-12-20T03:00:18;24.60;;;4.80;;
16135;SDS011;8173;48.354;9.248;2022-12-20T03:02:46;1.40;;;1.30;;
16135;SDS011;8173;48.354;9.248;2022-12-20T03:05:32;1.10;;;1.10;;
16135;SDS011;8173;48.354;9.248;2022-12-20T03:08:03;1.17;;;1.17;;
16135;SDS011;8173;48.354;9.248;2022-12-20T03:10:30;1.50;;;1.40;;
16135;SDS011;8173;48.354;9.248;2022-12-20T03:12:57;1.40;;;1.30;;
16135;SDS011;8173;48.354;9.248;2022-12-20T03:15:25;1.75;;;1.65;;
16135;SDS011;8173;48.354;9.248;2022-12-20T03:17:51;1.00;;;1.00;;
16135;SDS011;8173;48.354;9.248;2022-12-20T03:20:18;1.67;;;1.58;;
16135;SDS011;8173;48.354;9.248;2022-12-20T03:22:45;2.20;;;2.10;;
16135;SDS011;8173;48.354;9.248;2022-12-20T03:25:12;1.58;;;1.48;;
16135;SDS011;8173;48.354;9.248;2022-12-20T03:27:38;1.10;;;1.10;;
16135;SDS011;8173;48.354;9.248;2022-12-20T03:30:06;2.10;;;2.00;;
16135;SDS011;8173;48.354;9.248;2022-12-20T03:32:35;1.40;;;1.30;;
16135;SDS011;8173;48.354;9.248;2022-12-20T03:35:01;2.80;;;2.60;;
16135;SDS011;8173;48.354;9.248;2022-12-20T03:37:29;2.80;;;2.60;;
16135;SDS011;8173;48.354;9.248;2022-12-20T03:39:55;4.93;;;4.53;;
16135;SDS011;8173;48.354;9.248;2022-12-20T03:42:22;3.97;;;3.60;;
16135;SDS011;8173;48.354;9.248;2022-12-20T03:44:49;2.97;;;2.78;;
16135;SDS011;8173;48.354;9.248;2022-12-20T03:47:16;2.50;;;2.30;;
16135;SDS011;8173;48.354;9.248;2022-12-20T03:49:44;2.88;;;2.67;;
16135;SDS011;8173;48.354;9.248;2022-12-20T03:52:11;2.63;;;2.42;;
16135;SDS011;8173;48.354;9.248;2022-12-20T03:54:38;2.90;;;2.63;;
16135;SDS011;8173;48.354;9.248;2022-12-20T03:57:05;3.78;;;3.40;;
16135;SDS011;8173;48.354;9.248;2022-12-20T03:59:32;3.05;;;2.78;;
16135;SDS011;8173;48.354;9.248;2022-12-20T04:01:59;1.38;;;1.27;;
16135;SDS011;8173;48.354;9.248;2022-12-20T04:04:26;1.58;;;1.48;;
16135;SDS011;8173;48.354;9.248;2022-12-20T04:06:54;1.40;;;1.30;;
16135;SDS011;8173;48.354;9.248;2022-12-20T04:09:21;2.08;;;1.95;;
16135;SDS011;8173;48.354;9.248;2022-12-20T04:11:48;1.00;;;1.00;;
16135;SDS011;8173;48.354;9.248;2022-12-20T04:14:14;2.70;;;2.50;;
16135;SDS011;8173;48.354;9.248;2022-12-20T04:16:41;1.95;;;1.85;;
16135;SDS011;8173;48.354;9.248;2022-12-20T04:19:08;8.15;;;7.35;;
16135;SDS011;8173;48.354;9.248;2022-12-20T04:21:35;7.47;;;6.63;;
16135;SDS011;8173;48.354;9.248;2022-12-20T04:24:04;6.45;;;5.78;;
16135;SDS011;8173;48.354;9.248;2022-12-20T04:26:31;7.40;;;6.80;;
16135;SDS011;8173;48.354;9.248;2022-12-20T04:28:58;4.78;;;4.38;;
16135;SDS011;8173;48.354;9.248;2022-12-20T04:31:25;5.82;;;5.43;;
16135;SDS011;8173;48.354;9.248;2022-12-20T04:33:52;5.32;;;4.93;;
16135;SDS011;8173;48.354;9.248;2022-12-20T04:36:19;5.43;;;5.03;;
16135;SDS011;8173;48.354;9.248;2022-12-20T04:38:46;5.05;;;4.65;;
16135;SDS011;8173;48.354;9.248;2022-12-20T04:41:14;2.78;;;2.60;;
16135;SDS011;8173;48.354;9.248;2022-12-20T04:43:47;3.80;;;3.50;;
16135;SDS011;8173;48.354;9.248;2022-12-20T04:46:15;1.85;;;1.75;;
16135;SDS011;8173;48.354;9.248;2022-12-20T04:48:42;1.40;;;1.30;;
16135;SDS011;8173;48.354;9.248;2022-12-20T04:51:08;1.98;;;1.88;;
16135;SDS011;8173;48.354;9.248;2022-12-20T04:53:35;1.65;;;1.55;;
16135;SDS011;8173;48.354;9.248;2022-12-20T04:56:15;2.33;;;2.20;;
16135;SDS011;8173;48.354;9.248;2022-12-20T04:58:43;1.00;;;1.00;;
16135;SDS011;8173;48.354;9.248;2022-12-20T05:01:10;1.50;;;1.40;;
16135;SDS011;8173;48.354;9.248;2022-12-20T05:03:37;1.83;;;1.73;;
16135;SDS011;8173;48.354;9.248;2022-12-20T05:06:04;2.08;;;1.98;;
16135;SDS011;8173;48.354;9.248;2022-12-20T05:08:31;1.52;;;1.42;;
16135;SDS011;8173;48.354;9.248;2022-12-20T05:10:58;2.25;;;2.08;;
16135;SDS011;8173;48.354;9.248;2022-12-20T05:13:27;3.30;;;2.65;;
16135;SDS011;8173;48.354;9.248;2022-12-20T05:15:54;1.80;;;1.70;;
16135;SDS011;8173;48.354;9.248;2022-12-20T05:18:22;1.50;;;1.40;;
16135;SDS011;8173;48.354;9.248;2022-12-20T05:20:49;1.20;;;1.20;;
16135;SDS011;8173;48.354;9.248;2022-12-20T05:23:36;2.53;;;2.33;;
16135;SDS011;8173;48.354;9.248;2022-12-20T05:26:21;2.58;;;2.47;;
16135;SDS011;8173;48.354;9.248;2022-12-20T05:28:50;1.45;;;1.35;;
16135;SDS011;8173;48.354;9.248;2022-12-20T05:31:17;2.53;;;2.33;;
16135;SDS011;8173;48.354;9.248;2022-12-20T05:33:44;3.40;;;3.17;;
16135;SDS011;8173;48.354;9.248;2022-12-20T05:36:10;3.58;;;3.38;;
16135;SDS011;8173;48.354;9.248;2022-12-20T05:38:37;4.93;;;4.53;;
16135;SDS011;8173;48.354;9.248;2022-12-20T05:41:04;4.47;;;4.15;;
16135;SDS011;8173;48.354;9.248;2022-12-20T05:43:31;5.63;;;5.07;;
16135;SDS011;8173;48.354;9.248;2022-12-20T05:45:59;4.65;;;4.25;;
16135;SDS011;8173;48.354;9.248;2022-12-20T05:48:26;2.70;;;2.50;;
16135;SDS011;8173;48.354;9.248;2022-12-20T05:50:52;2.97;;;2.78;;
16135;SDS011;8173;48.354;9.248;2022-12-20T05:53:19;3.58;;;3.35;;
16135;SDS011;8173;48.354;9.248;2022-12-20T05:55:46;4.93;;;4.53;;
16135;SDS011;8173;48.354;9.248;2022-12-20T05:58:15;6.18;;;5.68;;
16135;SDS011;8173;48.354;9.248;2022-12-20T06:00:42;4.78;;;4.38;;
16135;SDS011;8173;48.354;9.248;2022-12-20T06:03:11;3.97;;;3.67;;
16135;SDS011;8173;48.354;9.248;2022-12-20T06:05:39;3.42;;;3.13;;
16135;SDS011;8173;48.354;9.248;2022-12-20T06:08:06;3.50;;;3.30;;
16135;SDS011;8173;48.354;9.248;2022-12-20T06:10:34;3.40;;;3.10;;
16135;SDS011;8173;48.354;9.248;2022-12-20T06:13:01;1.88;;;1.77;;
16135;SDS011;8173;48.354;9.248;2022-12-20T06:15:28;1.65;;;1.55;;
16135;SDS011;8173;48.354;9.248;2022-12-20T06:17:55;1.60;;;1.50;;
16135;SDS011;8173;48.354;9.248;2022-12-20T06:20:23;1.40;;;1.30;;
16135;SDS011;8173;48.354;9.248;2022-12-20T06:22:50;2.42;;;2.30;;
16135;SDS011;8173;48.354;9.248;2022-12-20T06:25:17;2.53;;;2.33;;
16135;SDS011;8173;48.354;9.248;2022-12-20T06:27:44;3.60;;;3.30;;
16135;SDS011;8173;48.354;9.248;2022-12-20T06:30:11;3.00;;;2.70;;
16135;SDS011;8173;48.354;9.248;2022-12-20T06:32:39;3.95;;;3.65;;
16135;SDS011;8173;48.354;9.248;2022-12-20T06:35:06;1.55;;;1.45;;
16135;SDS011;8173;48.354;9.248;2022-12-20T06:37:35;3.22;;;3.03;;
16135;SDS011;8173;48.354;9.248;2022-12-20T06:40:04;2.28;;;2.17;;
16135;SDS011;8173;48.354;9.248;2022-12-20T06:42:31;4.18;;;3.88;;
16135;SDS011;8173;48.354;9.248;2022-12-20T06:44:58;2.80;;;2.60;;
16135;SDS011;8173;48.354;9.248;2022-12-20T06:47:25;2.78;;;2.58;;
16135;SDS011;8173;48.354;9.248;2022-12-20T06:49:51;3.28;;;3.08;;
16135;SDS011;8173;48.354;9.248;2022-12-20T06:52:18;2.63;;;2.42;;
16135;SDS011;8173;48.354;9.248;2022-12-20T06:54:46;3.33;;;3.03;;
16135;SDS011;8173;48.354;9.248;2022-12-20T06:57:13;4.25;;;3.95;;
16135;SDS011;8173;48.354;9.248;2022-12-20T06:59:40;3.22;;;3.03;;
16135;SDS011;8173;48.354;9.248;2022-12-20T07:02:08;4.35;;;4.03;;
16135;SDS011;8173;48.354;9.248;2022-12-20T07:04:35;5.22;;;4.82;;
16135;SDS011;8173;48.354;9.248;2022-12-20T07:07:03;4.63;;;4.18;;
16135;SDS011;8173;48.354;9.248;2022-12-20T07:09:30;3.80;;;3.50;;
16135;SDS011;8173;48.354;9.248;2022-12-20T07:11:58;3.78;;;3.50;;
16135;SDS011;8173;48.354;9.248;2022-12-20T07:14:25;4.90;;;4.40;;
16135;SDS011;8173;48.354;9.248;2022-12-20T07:16:51;3.30;;;3.00;;
16135;SDS011;8173;48.354;9.248;2022-12-20T07:19:18;4.20;;;3.85;;
16135;SDS011;8173;48.354;9.248;2022-12-20T07:21:46;4.28;;;3.90;;
16135;SDS011;8173;48.354;9.248;2022-12-20T07:24:12;1.50;;;1.40;;
16135;SDS011;8173;48.354;9.248;2022-12-20T07:26:39;3.25;;;3.05;;
16135;SDS011;8173;48.354;9.248;2022-12-20T07:29:07;1.80;;;1.70;;
16135;SDS011;8173;48.354;9.248;2022-12-20T07:31:34;1.65;;;1.55;;
16135;SDS011;8173;48.354;9.248;2022-12-20T07:34:00;2.08;;;1.98;;
16135;SDS011;8173;48.354;9.248;2022-12-20T07:36:27;1.92;;;1.80;;
16135;SDS011;8173;48.354;9.248;2022-12-20T07:38:54;3.10;;;2.90;;
16135;SDS011;8173;48.354;9.248;2022-12-20T07:41:21;2.42;;;2.22;;
16135;SDS011;8173;48.354;9.248;2022-12-20T07:43:49;4.72;;;4.32;;
16135;SDS011;8173;48.354;9.248;2022-12-20T07:46:17;3.33;;;3.13;;
16135;SDS011;8173;48.354;9.248;2022-12-20T07:48:45;3.95;;;3.65;;
16135;SDS011;8173;48.354;9.248;2022-12-20T07:51:13;3.90;;;3.60;;
16135;SDS011;8173;48.354;9.248;2022-12-20T07:53:43;3.63;;;3.33;;
16135;SDS011;8173;48.354;9.248;2022-12-20T07:56:15;3.28;;;3.08;;
16135;SDS011;8173;48.354;9.248;2022-12-20T07:58:44;4.05;;;3.70;;
16135;SDS011;8173;48.354;9.248;2022-12-20T08:01:11;3.58;;;3.28;;
16135;SDS011;8173;48.354;9.248;2022-12-20T08:03:42;3.50;;;3.30;;
16135;SDS011;8173;48.354;9.248;2022-12-20T08:06:10;4.10;;;3.80;;
16135;SDS011;8173;48.354;9.248;2022-12-20T08:08:39;3.55;;;3.28;;
16135;SDS011;8173;48.354;9.248;2022-12-20T08:11:09;3.60;;;3.35;;
16135;SDS011;8173;48.354;9.248;2022-12-20T08:13:36;2.70;;;2.50;;
16135;SDS011;8173;48.354;9.248;2022-12-20T08:16:04;2.38;;;2.25;;
16135;SDS011;8173;48.354;9.248;2022-12-20T08:18:31;1.73;;;1.63;;
16135;SDS011;8173;48.354;9.248;2022-12-20T08:20:59;2.30;;;2.20;;
16135;SDS011;8173;48.354;9.248;2022-12-20T08:23:26;2.35;;;2.15;;
16135;SDS011;8173;48.354;9.248;2022-12-20T08:25:53;2.50;;;2.30;;
16135;SDS011;8173;48.354;9.248;2022-12-20T08:28:20;2.63;;;2.42;;
16135;SDS011;8173;48.354;9.248;2022-12-20T08:30:48;2.67;;;2.47;;
16135;SDS011;8173;48.354;9.248;2022-12-20T08:33:14;1.85;;;1.75;;
16135;SDS011;8173;48.354;9.248;2022-12-20T08:35:41;1.73;;;1.63;;
16135;SDS011;8173;48.354;9.248;2022-12-20T08:38:09;1.60;;;1.50;;
16135;SDS011;8173;48.354;9.248;2022-12-20T08:40:36;1.52;;;1.42;;
16135;SDS011;8173;48.354;9.248;2022-12-20T08:43:03;2.03;;;1.92;;
16135;SDS011;8173;48.354;9.248;2022-12-20T08:45:29;2.22;;;2.13;;
16135;SDS011;8173;48.354;9.248;2022-12-20T08:47:56;2.13;;;2.00;;
16135;SDS011;8173;48.354;9.248;2022-12-20T08:50:23;2.55;;;2.35;;
16135;SDS011;8173;48.354;9.248;2022-12-20T08:52:51;2.00;;;1.90;;
16135;SDS011;8173;48.354;9.248;2022-12-20T08:55:19;2.28;;;2.17;;
16135;SDS011;8173;48.354;9.248;2022-12-20T08:57:45;2.03;;;1.92;;
16135;SDS011;8173;48.354;9.248;2022-12-20T09:00:13;2.35;;;2.25;;
16135;SDS011;8173;48.354;9.248;2022-12-20T09:02:40;1.73;;;1.63;;
16135;SDS011;8173;48.354;9.248;2022-12-20T09:05:07;2.30;;;2.20;;
16135;SDS011;8173;48.354;9.248;2022-12-20T09:07:34;2.00;;;1.90;;
16135;SDS011;8173;48.354;9.248;2022-12-20T09:10:01;1.95;;;1.85;;
16135;SDS011;8173;48.354;9.248;2022-12-20T09:12:29;1.40;;;1.30;;
16135;SDS011;8173;48.354;9.248;2022-12-20T09:14:55;1.90;;;1.80;;
16135;SDS011;8173;48.354;9.248;2022-12-20T09:17:22;2.10;;;2.00;;
16135;SDS011;8173;48.354;9.248;2022-12-20T09:19:49;1.50;;;1.40;;
16135;SDS011;8173;48.354;9.248;2022-12-20T09:22:16;1.88;;;1.77;;
16135;SDS011;8173;48.354;9.248;2022-12-20T09:24:42;1.80;;;1.70;;
16135;SDS011;8173;48.354;9.248;2022-12-20T09:27:09;1.27;;;1.23;;
16135;SDS011;8173;48.354;9.248;2022-12-20T09:29:38;1.80;;;1.70;;
16135;SDS011;8173;48.354;9.248;2022-12-20T09:32:05;1.42;;;1.33;;
16135;SDS011;8173;48.354;9.248;2022-12-20T09:34:32;1.60;;;1.50;;
16135;SDS011;8173;48.354;9.248;2022-12-20T09:36:59;2.13;;;2.03;;
16135;SDS011;8173;48.354;9.248;2022-12-20T09:39:26;1.00;;;1.00;;
16135;SDS011;8173;48.354;9.248;2022-12-20T09:41:52;1.20;;;1.20;;
16135;SDS011;8173;48.354;9.248;2022-12-20T09:44:21;1.85;;;1.75;;
16135;SDS011;8173;48.354;9.248;2022-12-20T09:46:53;1.17;;;1.08;;
16135;SDS011;8173;48.354;9.248;2022-12-20T09:49:22;1.88;;;1.77;;
16135;SDS011;8173;48.354;9.248;2022-12-20T09:51:58;1.50;;;1.40;;
16135;SDS011;8173;48.354;9.248;2022-12-20T09:54:40;1.10;;;1.10;;
16135;SDS011;8173;48.354;9.248;2022-12-20T09:57:14;1.92;;;1.83;;
16135;SDS011;8173;48.354;9.248;2022-12-20T09:59:48;1.80;;;1.70;;
16135;SDS011;8173;48.354;9.248;2022-12-20T10:02:18;1.63;;;1.52;;
16135;SDS011;8173;48.354;9.248;2022-12-20T10:04:47;1.77;;;1.67;;
16135;SDS011;8173;48.354;9.248;2022-12-20T10:07:18;1.80;;;1.70;;
16135;SDS011;8173;48.354;9.248;2022-12-20T10:09:59;2.28;;;1.42;;
16135;SDS011;8173;48.354;9.248;2022-12-20T10:12:41;1.25;;;1.20;;
16135;SDS011;8173;48.354;9.248;2022-12-20T10:15:18;1.77;;;1.50;;
16135;SDS011;8173;48.354;9.248;2022-12-20T10:17:53;1.70;;;1.60;;
16135;SDS011;8173;48.354;9.248;2022-12-20T10:20:36;2.08;;;1.98;;
16135;SDS011;8173;48.354;9.248;2022-12-20T10:23:13;1.88;;;1.77;;
16135;SDS011;8173;48.354;9.248;2022-12-20T10:25:48;1.83;;;1.73;;
16135;SDS011;8173;48.354;9.248;2022-12-20T10:28:15;2.17;;;2.08;;
16135;SDS011;8173;48.354;9.248;2022-12-20T10:30:42;1.50;;;1.40;;
16135;SDS011;8173;48.354;9.248;2022-12-20T10:33:13;1.40;;;1.30;;
16135;SDS011;8173;48.354;9.248;2022-12-20T10:35:44;1.80;;;1.70;;
16135;SDS011;8173;48.354;9.248;2022-12-20T10:38:11;1.80;;;1.67;;
16135;SDS011;8173;48.354;9.248;2022-12-20T10:40:41;3.13;;;1.80;;
16135;SDS011;8173;48.354;9.248;2022-12-20T10:43:13;1.95;;;1.85;;
16135;SDS011;8173;48.354;9.248;2022-12-20T10:45:43;1.60;;;1.50;;
16135;SDS011;8173;48.354;9.248;2022-12-20T10:48:24;1.90;;;1.80;;
16135;SDS011;8173;48.354;9.248;2022-12-20T10:50:55;1.80;;;1.70;;
16135;SDS011;8173;48.354;9.248;2022-12-20T10:53:23;1.80;;;1.70;;
16135;SDS011;8173;48.354;9.248;2022-12-20T10:55:51;1.50;;;1.40;;
16135;SDS011;8173;48.354;9.248;2022-12-20T10:58:20;1.58;;;1.48;;
16135;SDS011;8173;48.354;9.248;2022-12-20T11:01:02;1.75;;;1.65;;
16135;SDS011;8173;48.354;9.248;2022-12-20T11:03:49;1.80;;;1.70;;
16135;SDS011;8173;48.354;9.248;2022-12-20T11:06:17;2.58;;;2.38;;
16135;SDS011;8173;48.354;9.248;2022-12-20T11:08:45;1.45;;;1.35;;
16135;SDS011;8173;48.354;9.248;2022-12-20T11:11:14;2.03;;;1.67;;
16135;SDS011;8173;48.354;9.248;2022-12-20T11:13:43;1.92;;;1.83;;
16135;SDS011;8173;48.354;9.248;2022-12-20T11:16:21;1.50;;;1.40;;
16135;SDS011;8173;48.354;9.248;2022-12-20T11:18:53;1.70;;;1.60;;
16135;SDS011;8173;48.354;9.248;2022-12-20T11:21:30;1.40;;;1.30;;
16135;SDS011;8173;48.354;9.248;2022-12-20T11:24:06;1.90;;;1.80;;
16135;SDS011;8173;48.354;9.248;2022-12-20T11:26:49;1.60;;;1.50;;
16135;SDS011;8173;48.354;9.248;2022-12-20T11:29:30;1.80;;;1.70;;
16135;SDS011;8173;48.354;9.248;2022-12-20T11:32:09;1.80;;;1.70;;
16135;SDS011;8173;48.354;9.248;2022-12-20T11:34:48;2.10;;;2.00;;
16135;SDS011;8173;48.354;9.248;2022-12-20T11:37:28;1.00;;;1.00;;
16135;SDS011;8173;48.354;9.248;2022-12-20T11:40:05;1.42;;;1.33;;
16135;SDS011;8173;48.354;9.248;2022-12-20T11:42:50;1.13;;;1.10;;
16135;SDS011;8173;48.354;9.248;2022-12-20T11:45:22;1.23;;;1.20;;
16135;SDS011;8173;48.354;9.248;2022-12-20T11:47:59;1.40;;;1.30;;
16135;SDS011;8173;48.354;9.248;2022-12-20T11:50:39;1.75;;;1.65;;
16135;SDS011;8173;48.354;9.248;2022-12-20T11:53:15;1.70;;;1.60;;
16135;SDS011;8173;48.354;9.248;2022-12-20T11:55:48;2.28;;;1.95;;
16135;SDS011;8173;48.354;9.248;2022-12-20T11:58:19;1.50;;;1.40;;
16135;SDS011;8173;48.354;9.248;2022-12-20T12:00:52;2.03;;;1.92;;
16135;SDS011;8173;48.354;9.248;2022-12-20T12:03:23;2.30;;;2.10;;
16135;SDS011;8173;48.354;9.248;2022-12-20T12:05:56;1.95;;;1.85;;
16135;SDS011;8173;48.354;9.248;2022-12-20T12:08:27;2.35;;;2.00;;
16135;SDS011;8173;48.354;9.248;2022-12-20T12:11:00;1.48;;;1.38;;
16135;SDS011;8173;48.354;9.248;2022-12-20T12:13:31;1.55;;;1.45;;
16135;SDS011;8173;48.354;9.248;2022-12-20T12:16:02;1.63;;;1.52;;
16135;SDS011;8173;48.354;9.248;2022-12-20T12:18:35;1.80;;;1.70;;
16135;SDS011;8173;48.354;9.248;2022-12-20T12:21:07;1.52;;;1.42;;
16135;SDS011;8173;48.354;9.248;2022-12-20T12:23:39;1.50;;;1.40;;
16135;SDS011;8173;48.354;9.248;2022-12-20T12:26:12;1.52;;;1.38;;
16135;SDS011;8173;48.354;9.248;2022-12-20T12:28:45;1.40;;;1.30;;
16135;SDS011;8173;48.354;9.248;2022-12-20T12:31:16;1.60;;;1.50;;
16135;SDS011;8173;48.354;9.248;2022-12-20T12:33:59;1.65;;;1.55;;
16135;SDS011;8173;48.354;9.248;2022-12-20T12:36:41;1.45;;;1.35;;
16135;SDS011;8173;48.354;9.248;2022-12-20T12:39:42;1.73;;;1.63;;
16135;SDS011;8173;48.354;9.248;2022-12-20T12:45:30;1.20;;;1.20;;
16135;SDS011;8173;48.354;9.248;2022-12-20T12:48:03;1.30;;;1.20;;
16135;SDS011;8173;48.354;9.248;2022-12-20T12:50:34;1.58;;;1.48;;
16135;SDS011;8173;48.354;9.248;2022-12-20T12:53:05;1.50;;;1.40;;
16135;SDS011;8173;48.354;9.248;2022-12-20T12:55:34;1.23;;;1.15;;
16135;SDS011;8173;48.354;9.248;2022-12-20T13:00:57;2.88;;;1.55;;
16135;SDS011;8173;48.354;9.248;2022-12-20T13:09:21;1.15;;;1.10;;
16135;SDS011;8173;48.354;9.248;2022-12-20T13:18:22;1.90;;;1.80;;
16135;SDS011;8173;48.354;9.248;2022-12-20T13:27:13;2.03;;;1.92;;
16135;SDS011;8173;48.354;9.248;2022-12-20T13:38:37;1.83;;;1.73;;
16135;SDS011;8173;48.354;9.248;2022-12-20T13:41:18;1.55;;;1.45;;
16135;SDS011;8173;48.354;9.248;2022-12-20T13:43:52;2.08;;;1.98;;
16135;SDS011;8173;48.354;9.248;2022-12-20T13:46:23;2.20;;;2.10;;
16135;SDS011;8173;48.354;9.248;2022-12-20T13:48:53;1.95;;;1.85;;
16135;SDS011;8173;48.354;9.248;2022-12-20T13:51:25;1.73;;;1.63;;
16135;SDS011;8173;48.354;9.248;2022-12-20T13:53:52;2.15;;;2.05;;
16135;SDS011;8173;48.354;9.248;2022-12-20T13:56:32;1.63;;;1.52;;
16135;SDS011;8173;48.354;9.248;2022-12-20T13:59:06;2.20;;;1.98;;
16135;SDS011;8173;48.354;9.248;2022-12-20T14:01:45;1.70;;;1.60;;
16135;SDS011;8173;48.354;9.248;2022-12-20T14:04:13;1.70;;;1.60;;
16135;SDS011;8173;48.354;9.248;2022-12-20T14:06:40;1.95;;;1.85;;
16135;SDS011;8173;48.354;9.248;2022-12-20T14:11:52;2.17;;;2.08;;
16135;SDS011;8173;48.354;9.248;2022-12-20T14:14:20;1.70;;;1.55;;
16135;SDS011;8173;48.354;9.248;2022-12-20T14:16:47;1.00;;;1.00;;
16135;SDS011;8173;48.354;9.248;2022-12-20T14:19:14;1.10;;;1.10;;
16135;SDS011;8173;48.354;9.248;2022-12-20T14:21:41;1.00;;;1.00;;
16135;SDS011;8173;48.354;9.248;2022-12-20T14:24:10;0.90;;;0.90;;
16135;SDS011;8173;48.354;9.248;2022-12-20T14:26:42;1.13;;;1.10;;
16135;SDS011;8173;48.354;9.248;2022-12-20T14:29:14;0.90;;;0.90;;
16135;SDS011;8173;48.354;9.248;2022-12-20T14:31:45;1.55;;;1.45;;
16135;SDS011;8173;48.354;9.248;2022-12-20T14:34:14;0.95;;;0.95;;
16135;SDS011;8173;48.354;9.248;2022-12-20T14:36:44;1.08;;;1.08;;
16135;SDS011;8173;48.354;9.248;2022-12-20T14:41:58;1.10;;;1.10;;
16135;SDS011;8173;48.354;9.248;2022-12-20T14:44:26;0.80;;;0.80;;
16135;SDS011;8173;48.354;9.248;2022-12-20T14:46:56;1.00;;;1.00;;
16135;SDS011;8173;48.354;9.248;2022-12-20T14:49:24;0.90;;;0.90;;
16135;SDS011;8173;48.354;9.248;2022-12-20T14:52:03;1.35;;;1.25;;
16135;SDS011;8173;48.354;9.248;2022-12-20T14:54:32;1.20;;;1.15;;
16135;SDS011;8173;48.354;9.248;2022-12-20T14:57:00;1.98;;;1.85;;
16135;SDS011;8173;48.354;9.248;2022-12-20T14:59:27;1.33;;;1.23;;
16135;SDS011;8173;48.354;9.248;2022-12-20T15:01:56;1.40;;;1.30;;
16135;SDS011;8173;48.354;9.248;2022-12-20T15:04:43;1.27;;;1.17;;
16135;SDS011;8173;48.354;9.248;2022-12-20T15:09:55;1.15;;;1.15;;
16135;SDS011;8173;48.354;9.248;2022-12-20T15:12:23;1.70;;;1.60;;
16135;SDS011;8173;48.354;9.248;2022-12-20T15:14:50;1.50;;;1.40;;
16135;SDS011;8173;48.354;9.248;2022-12-20T15:17:18;1.83;;;1.73;;
16135;SDS011;8173;48.354;9.248;2022-12-20T15:19:45;1.70;;;1.60;;
16135;SDS011;8173;48.354;9.248;2022-12-20T15:22:12;1.90;;;1.80;;
16135;SDS011;8173;48.354;9.248;2022-12-20T15:24:41;1.60;;;1.50;;
16135;SDS011;8173;48.354;9.248;2022-12-20T15:27:10;1.10;;;1.10;;
16135;SDS011;8173;48.354;9.248;2022-12-20T15:29:38;1.00;;;1.00;;
16135;SDS011;8173;48.354;9.248;2022-12-20T15:32:06;1.90;;;1.80;;
16135;SDS011;8173;48.354;9.248;2022-12-20T15:34:40;1.80;;;1.70;;
16135;SDS011;8173;48.354;9.248;2022-12-20T15:37:09;1.70;;;1.60;;
16135;SDS011;8173;48.354;9.248;2022-12-20T15:39:40;1.83;;;1.73;;
16135;SDS011;8173;48.354;9.248;2022-12-20T15:42:08;1.90;;;1.80;;
16135;SDS011;8173;48.354;9.248;2022-12-20T15:44:39;1.95;;;1.85;;
16135;SDS011;8173;48.354;9.248;2022-12-20T15:47:08;2.40;;;1.90;;
16135;SDS011;8173;48.354;9.248;2022-12-20T15:49:37;2.58;;;2.40;;
16135;SDS011;8173;48.354;9.248;2022-12-20T15:52:05;2.30;;;2.10;;
16135;SDS011;8173;48.354;9.248;2022-12-20T15:54:32;1.88;;;1.77;;
16135;SDS011;8173;48.354;9.248;2022-12-20T15:57:01;2.10;;;1.98;;